createdAt,value
2024-02-06T00:01:00.719Z,6.70
2024-02-06T00:03:43.239Z,7.50
2024-02-06T00:06:11.437Z,8.60
2024-02-06T00:08:39.700Z,8.20
2024-02-06T00:11:09.199Z,9.50
2024-02-06T00:13:38.829Z,8.00
2024-02-06T00:16:16.480Z,7.80
2024-02-06T00:18:44.601Z,10.40
2024-02-06T00:21:12.725Z,9.60
2024-02-06T00:23:40.840Z,10.40
2024-02-06T00:26:09.016Z,11.70
2024-02-06T00:28:37.211Z,10.50
2024-02-06T00:31:05.469Z,11.70
2024-02-06T00:33:33.717Z,13.90
2024-02-06T00:36:02.648Z,14.40
2024-02-06T00:38:30.944Z,14.30
2024-02-06T00:40:59.157Z,16.00
2024-02-06T00:43:27.482Z,16.90
2024-02-06T00:45:55.850Z,12.90
2024-02-06T00:48:24.133Z,13.00
2024-02-06T00:50:52.561Z,16.20
2024-02-06T00:53:20.852Z,14.00
2024-02-06T00:55:49.109Z,17.10
2024-02-06T00:58:17.583Z,12.60
2024-02-06T01:00:45.831Z,13.60
2024-02-06T01:03:14.047Z,14.50
2024-02-06T01:05:42.381Z,14.60
2024-02-06T01:08:10.605Z,17.30
2024-02-06T01:10:38.825Z,15.20
2024-02-06T01:13:07.097Z,16.90
2024-02-06T01:15:35.361Z,14.30
2024-02-06T01:18:03.768Z,16.40
2024-02-06T01:20:31.904Z,12.60
2024-02-06T01:23:00.215Z,12.50
2024-02-06T01:25:31.273Z,12.70
2024-02-06T01:27:59.685Z,13.20
2024-02-06T01:30:28.746Z,12.90
2024-02-06T01:32:57.270Z,11.20
2024-02-06T01:35:25.776Z,14.20
2024-02-06T01:37:54.161Z,11.10
2024-02-06T01:40:22.979Z,12.90
2024-02-06T01:42:51.814Z,15.60
2024-02-06T01:45:20.119Z,10.70
2024-02-06T01:47:48.774Z,13.30
2024-02-06T01:50:18.337Z,14.90
2024-02-06T01:52:46.899Z,11.90
2024-02-06T01:55:17.022Z,14.10
2024-02-06T01:57:48.328Z,12.10
2024-02-06T02:00:17.699Z,11.90
2024-02-06T02:02:45.882Z,11.90
2024-02-06T02:05:14.397Z,12.40
2024-02-06T02:07:43.546Z,10.50
2024-02-06T02:10:11.921Z,12.00
2024-02-06T02:12:41.573Z,12.90
2024-02-06T02:15:09.965Z,12.50
2024-02-06T02:17:38.203Z,12.30
2024-02-06T02:20:07.529Z,11.00
2024-02-06T02:22:35.849Z,14.50
2024-02-06T02:25:04.507Z,13.30
2024-02-06T02:27:32.876Z,14.90
2024-02-06T02:30:01.776Z,18.20
2024-02-06T02:32:31.345Z,17.00
2024-02-06T02:34:59.712Z,16.60
2024-02-06T02:37:27.874Z,17.80
2024-02-06T02:39:56.293Z,20.50
2024-02-06T02:42:24.490Z,17.70
2024-02-06T02:44:52.695Z,18.90
2024-02-06T02:47:20.881Z,19.60
2024-02-06T02:49:49.080Z,19.90
2024-02-06T02:52:17.269Z,19.10
2024-02-06T02:54:45.507Z,19.30
2024-02-06T02:57:13.625Z,21.30
2024-02-06T02:59:41.813Z,20.30
2024-02-06T03:02:10.034Z,20.30
2024-02-06T03:04:39.123Z,21.20
2024-02-06T03:07:07.423Z,20.70
2024-02-06T03:09:36.769Z,17.90
2024-02-06T03:12:05.279Z,15.10
2024-02-06T03:14:33.383Z,18.40
2024-02-06T03:17:02.070Z,21.30
2024-02-06T03:19:30.493Z,21.90
2024-02-06T03:21:58.815Z,20.90
2024-02-06T03:24:29.865Z,19.00
2024-02-06T03:26:58.108Z,19.10
2024-02-06T03:29:26.382Z,16.00
2024-02-06T03:31:54.512Z,13.80
2024-02-06T03:34:22.823Z,13.70
2024-02-06T03:36:51.117Z,12.40
2024-02-06T03:39:20.086Z,12.90
2024-02-06T03:41:48.713Z,13.80
2024-02-06T03:44:17.477Z,12.10
2024-02-06T03:46:45.741Z,13.00
2024-02-06T03:49:14.176Z,13.00
2024-02-06T03:51:42.558Z,11.60
2024-02-06T03:54:10.855Z,11.40
2024-02-06T03:56:39.005Z,12.10
2024-02-06T03:59:07.425Z,12.90
2024-02-06T04:01:36.870Z,12.70
2024-02-06T04:04:05.781Z,14.60
2024-02-06T04:06:33.991Z,11.20
2024-02-06T04:09:02.264Z,14.80
2024-02-06T04:11:31.056Z,12.30
2024-02-06T04:13:59.235Z,11.90
2024-02-06T04:16:27.529Z,11.90
2024-02-06T04:18:55.918Z,14.00
2024-02-06T04:21:24.237Z,11.40
2024-02-06T04:23:52.413Z,11.30
2024-02-06T04:26:20.619Z,11.70
2024-02-06T04:28:48.774Z,11.40
2024-02-06T04:31:16.991Z,12.00
2024-02-06T04:33:45.298Z,14.60
2024-02-06T04:36:13.470Z,13.40
2024-02-06T04:38:41.677Z,12.30
2024-02-06T04:41:09.855Z,12.10
2024-02-06T04:43:38.114Z,13.60
2024-02-06T04:46:06.472Z,14.10
2024-02-06T04:48:35.110Z,16.70
2024-02-06T04:51:03.415Z,18.40
2024-02-06T04:53:33.129Z,14.70
2024-02-06T04:56:01.315Z,17.90
2024-02-06T04:58:29.823Z,17.30
2024-02-06T05:00:58.064Z,16.80
2024-02-06T05:03:26.586Z,16.30
2024-02-06T05:05:55.208Z,19.00
2024-02-06T05:08:23.361Z,19.00
2024-02-06T05:10:54.270Z,21.50
2024-02-06T05:13:22.571Z,24.20
2024-02-06T05:15:50.866Z,21.40
2024-02-06T05:18:19.380Z,26.00
2024-02-06T05:20:47.672Z,21.70
2024-02-06T05:23:15.961Z,25.70
2024-02-06T05:25:44.313Z,25.20
2024-02-06T05:28:12.697Z,20.10
2024-02-06T05:30:40.974Z,22.10
2024-02-06T05:33:09.285Z,23.20
2024-02-06T05:35:37.689Z,21.60
2024-02-06T05:38:05.989Z,22.90
2024-02-06T05:40:34.660Z,20.30
2024-02-06T05:43:03.768Z,20.50
2024-02-06T05:45:32.128Z,18.10
2024-02-06T05:48:01.556Z,18.00
2024-02-06T05:50:31.377Z,19.80
2024-02-06T05:52:59.750Z,18.20
2024-02-06T05:55:30.491Z,16.50
2024-02-06T05:57:58.852Z,15.50
2024-02-06T06:00:28.172Z,14.40
2024-02-06T06:02:56.469Z,11.60
2024-02-06T06:05:25.279Z,9.10
2024-02-06T06:07:53.852Z,8.00
2024-02-06T06:10:22.278Z,8.90
2024-02-06T06:12:50.477Z,9.70
2024-02-06T06:15:18.822Z,8.60
2024-02-06T06:17:47.064Z,10.70
2024-02-06T06:20:15.476Z,11.60
2024-02-06T06:22:43.872Z,10.90
2024-02-06T06:25:12.137Z,12.90
2024-02-06T06:27:43.382Z,11.60
2024-02-06T06:30:12.049Z,13.70
2024-02-06T06:32:41.714Z,12.90
2024-02-06T06:35:10.223Z,11.90
2024-02-06T06:37:39.602Z,10.80
2024-02-06T06:40:09.537Z,12.10
2024-02-06T06:42:38.358Z,13.20
2024-02-06T06:45:07.177Z,15.30
2024-02-06T06:47:35.635Z,14.10
2024-02-06T06:50:04.219Z,16.20
2024-02-06T06:52:33.134Z,15.10
2024-02-06T06:55:01.526Z,15.00
2024-02-06T06:57:29.837Z,13.70
2024-02-06T06:59:58.033Z,14.50
2024-02-06T07:02:26.245Z,14.70
2024-02-06T07:04:54.541Z,14.60
2024-02-06T07:07:22.757Z,9.20
2024-02-06T07:09:50.909Z,13.40
2024-02-06T07:12:19.271Z,12.90
2024-02-06T07:14:47.466Z,14.60
2024-02-06T07:17:17.242Z,9.90
2024-02-06T07:19:45.655Z,12.10
2024-02-06T07:22:14.050Z,11.80
2024-02-06T07:24:42.248Z,15.50
2024-02-06T07:27:10.524Z,11.60
2024-02-06T07:29:39.284Z,13.30
2024-02-06T07:32:07.570Z,11.40
2024-02-06T07:34:35.886Z,13.30
2024-02-06T07:37:04.451Z,16.80
2024-02-06T07:39:32.709Z,18.30
2024-02-06T07:42:00.893Z,19.60
2024-02-06T07:44:29.116Z,17.50
2024-02-06T07:46:57.284Z,21.10
2024-02-06T07:49:25.701Z,17.80
2024-02-06T07:51:53.984Z,18.70
2024-02-06T07:54:22.221Z,17.60
2024-02-06T07:56:50.443Z,18.80
2024-02-06T07:59:18.724Z,17.80
2024-02-06T08:01:47.090Z,19.70
2024-02-06T08:04:15.418Z,16.10
2024-02-06T08:06:43.742Z,21.80
2024-02-06T08:09:12.040Z,16.50
2024-02-06T08:11:40.298Z,19.20
2024-02-06T08:14:13.905Z,20.50
2024-02-06T08:16:42.349Z,21.40
2024-02-06T08:19:10.760Z,21.10
2024-02-06T08:21:39.308Z,24.00
2024-02-06T08:24:07.684Z,20.00
2024-02-06T08:26:35.903Z,24.60
2024-02-06T08:29:04.070Z,23.60
2024-02-06T08:31:32.534Z,20.80
2024-02-06T08:34:00.719Z,26.60
2024-02-06T08:36:29.250Z,22.90
2024-02-06T08:38:57.668Z,24.00
2024-02-06T08:41:30.404Z,20.10
2024-02-06T08:43:59.013Z,22.60
2024-02-06T08:46:29.854Z,22.10
2024-02-06T08:48:58.858Z,22.00
2024-02-06T08:51:27.126Z,23.10
2024-02-06T08:53:56.041Z,21.30
2024-02-06T08:56:24.457Z,17.50
2024-02-06T08:58:52.732Z,25.70
2024-02-06T09:01:24.190Z,31.00
2024-02-06T09:03:56.527Z,29.70
2024-02-06T09:06:28.566Z,30.00
2024-02-06T09:09:00.099Z,28.60
2024-02-06T09:11:28.836Z,32.30
2024-02-06T09:13:57.538Z,30.80
2024-02-06T09:16:27.229Z,35.20
2024-02-06T09:18:58.266Z,35.60
2024-02-06T09:21:27.378Z,41.50
2024-02-06T09:23:55.563Z,43.30
2024-02-06T09:26:23.714Z,42.50
2024-02-06T09:28:51.949Z,47.10
2024-02-06T09:31:21.250Z,42.40
2024-02-06T09:33:50.004Z,44.00
2024-02-06T09:36:19.015Z,45.10
2024-02-06T09:38:47.960Z,42.80
2024-02-06T09:41:16.895Z,42.00
2024-02-06T09:43:45.609Z,42.30
2024-02-06T09:46:13.987Z,42.00
2024-02-06T09:48:43.896Z,44.00
2024-02-06T09:51:14.967Z,48.50
2024-02-06T09:53:44.600Z,48.60
2024-02-06T09:56:13.232Z,52.50
2024-02-06T09:58:42.314Z,55.50
2024-02-06T10:01:14.209Z,62.80
2024-02-06T10:03:46.616Z,65.60
2024-02-06T10:06:20.804Z,62.10
2024-02-06T10:08:50.299Z,57.50
2024-02-06T10:11:21.824Z,59.20
2024-02-06T10:13:50.260Z,60.90
2024-02-06T10:16:18.777Z,47.40
2024-02-06T10:18:53.877Z,49.40
2024-02-06T10:21:24.012Z,43.50
2024-02-06T10:24:01.579Z,46.10
2024-02-06T10:26:29.840Z,45.30
2024-02-06T10:29:09.195Z,47.80
2024-02-06T10:31:39.368Z,47.10
2024-02-06T10:34:09.805Z,43.70
2024-02-06T10:36:38.897Z,49.10
2024-02-06T10:39:09.891Z,47.20
2024-02-06T10:41:57.891Z,45.50
2024-02-06T10:44:29.969Z,48.40
2024-02-06T10:47:06.211Z,52.40
2024-02-06T10:49:35.075Z,43.10
2024-02-06T10:52:05.734Z,45.60
2024-02-06T10:54:35.899Z,45.40
2024-02-06T10:57:09.751Z,44.70
2024-02-06T10:59:53.423Z,44.80
2024-02-06T11:02:26.021Z,45.00
2024-02-06T11:05:03.185Z,45.30
2024-02-06T11:07:35.397Z,42.20
2024-02-06T11:10:09.065Z,47.40
2024-02-06T11:12:39.394Z,46.60
2024-02-06T11:15:13.381Z,43.30
2024-02-06T11:17:43.730Z,47.80
2024-02-06T11:20:15.385Z,34.10
2024-02-06T11:22:46.777Z,38.10
2024-02-06T11:25:18.490Z,40.70
2024-02-06T11:27:49.094Z,46.50
2024-02-06T11:30:18.500Z,46.10
2024-02-06T11:32:46.782Z,47.90
2024-02-06T11:35:15.885Z,45.00
2024-02-06T11:37:54.718Z,45.40
2024-02-06T11:40:30.096Z,38.60
2024-02-06T11:43:05.418Z,31.70
2024-02-06T11:45:35.173Z,31.80
2024-02-06T11:48:06.146Z,33.10
2024-02-06T11:50:45.650Z,37.70
2024-02-06T11:53:15.931Z,54.00
2024-02-06T11:55:48.053Z,49.20
2024-02-06T11:58:17.371Z,47.00
2024-02-06T12:00:46.345Z,48.50
2024-02-06T12:03:17.695Z,51.40
2024-02-06T12:05:47.286Z,46.90
2024-02-06T12:08:22.293Z,40.50
2024-02-06T12:10:52.054Z,43.60
2024-02-06T12:13:23.350Z,39.30
2024-02-06T12:15:52.113Z,33.80
2024-02-06T12:18:21.975Z,35.10
2024-02-06T12:20:50.514Z,40.60
2024-02-06T12:23:19.282Z,29.00
2024-02-06T12:25:49.472Z,25.50
2024-02-06T12:28:18.187Z,28.10
2024-02-06T12:30:50.733Z,25.20
2024-02-06T12:33:20.155Z,20.70
2024-02-06T12:35:49.230Z,25.90
2024-02-06T12:38:19.804Z,24.60
2024-02-06T12:40:48.290Z,17.30
2024-02-06T12:43:17.845Z,21.20
2024-02-06T12:45:46.787Z,28.00
2024-02-06T12:48:15.830Z,27.90
2024-02-06T12:50:44.348Z,30.80
2024-02-06T12:53:12.943Z,20.90
2024-02-06T12:55:42.145Z,27.10
2024-02-06T12:58:10.571Z,20.80
2024-02-06T13:00:40.074Z,19.90
2024-02-06T13:03:16.748Z,19.10
2024-02-06T13:05:47.577Z,15.20
2024-02-06T13:08:17.603Z,11.20
2024-02-06T13:10:45.957Z,10.60
2024-02-06T13:13:17.952Z,14.00
2024-02-06T13:15:46.576Z,13.40
2024-02-06T13:18:20.624Z,11.80
2024-02-06T13:20:58.405Z,10.60
2024-02-06T13:23:26.708Z,9.30
2024-02-06T13:25:54.905Z,8.20
2024-02-06T13:28:23.180Z,10.00
2024-02-06T13:30:51.383Z,10.60
2024-02-06T13:33:19.875Z,10.90
2024-02-06T13:35:48.015Z,11.10
2024-02-06T13:38:16.271Z,15.20
2024-02-06T13:40:44.619Z,8.70
2024-02-06T13:43:13.098Z,11.90
2024-02-06T13:45:41.269Z,10.20
2024-02-06T13:48:09.522Z,15.50
2024-02-06T13:50:37.695Z,10.70
2024-02-06T13:53:06.688Z,11.10
2024-02-06T13:55:34.965Z,13.60
2024-02-06T13:58:04.269Z,12.20
2024-02-06T14:00:32.454Z,11.70
2024-02-06T14:03:00.689Z,8.10
2024-02-06T14:05:29.986Z,8.40
2024-02-06T14:07:59.192Z,10.40
2024-02-06T14:10:27.761Z,11.10
2024-02-06T14:12:56.080Z,12.60
2024-02-06T14:15:24.284Z,12.20
2024-02-06T14:17:52.553Z,15.30
2024-02-06T14:20:20.922Z,12.20
2024-02-06T14:22:49.337Z,12.20
2024-02-06T14:25:18.643Z,13.30
2024-02-06T14:27:46.940Z,14.50
2024-02-06T14:30:15.274Z,13.60
2024-02-06T14:32:43.690Z,12.10
2024-02-06T14:35:12.071Z,11.60
2024-02-06T14:37:40.585Z,11.10
2024-02-06T14:40:09.293Z,13.30
2024-02-06T14:42:37.569Z,14.80
2024-02-06T14:45:06.313Z,12.30
2024-02-06T14:47:34.621Z,16.20
2024-02-06T14:50:03.116Z,12.50
2024-02-06T14:52:31.285Z,13.40
2024-02-06T14:54:59.620Z,10.00
2024-02-06T14:57:28.569Z,8.90
2024-02-06T14:59:56.987Z,10.90
2024-02-06T15:02:25.381Z,8.80
2024-02-06T15:04:53.756Z,11.40
2024-02-06T15:07:22.126Z,8.20
2024-02-06T15:09:50.750Z,11.10
2024-02-06T15:12:18.859Z,7.80
2024-02-06T15:14:47.319Z,9.70
2024-02-06T15:17:15.572Z,8.80
2024-02-06T15:19:45.927Z,7.60
2024-02-06T15:22:14.367Z,9.50
2024-02-06T15:24:43.688Z,13.70
2024-02-06T15:27:12.222Z,13.10
2024-02-06T15:29:40.444Z,11.00
2024-02-06T15:32:08.730Z,10.40
2024-02-06T15:34:37.155Z,12.00
2024-02-06T15:37:06.048Z,12.10
2024-02-06T15:39:34.270Z,13.50
2024-02-06T15:42:02.391Z,11.80
2024-02-06T15:44:30.603Z,12.10
2024-02-06T15:46:58.887Z,12.60
2024-02-06T15:49:27.196Z,12.80
2024-02-06T15:51:55.559Z,11.40
2024-02-06T15:54:23.734Z,11.50
2024-02-06T15:56:52.001Z,10.20
2024-02-06T15:59:20.204Z,11.70
2024-02-06T16:01:49.523Z,9.00
2024-02-06T16:04:18.445Z,12.80
2024-02-06T16:06:46.843Z,10.80
2024-02-06T16:09:18.279Z,8.50
2024-02-06T16:11:49.463Z,10.10
2024-02-06T16:14:18.328Z,9.90
2024-02-06T16:16:48.958Z,9.20
2024-02-06T16:19:26.996Z,7.70
2024-02-06T16:22:01.636Z,8.60
2024-02-06T16:24:30.447Z,9.40
2024-02-06T16:27:00.244Z,9.00
2024-02-06T16:29:28.917Z,8.50
2024-02-06T16:31:57.786Z,8.90
2024-02-06T16:34:37.191Z,9.30
2024-02-06T16:37:08.255Z,9.50
2024-02-06T16:39:37.185Z,10.50
2024-02-06T16:42:06.855Z,9.60
2024-02-06T16:44:35.228Z,11.40
2024-02-06T16:47:03.647Z,9.40
2024-02-06T16:49:32.096Z,12.30
2024-02-06T16:52:00.558Z,11.30
2024-02-06T16:54:28.973Z,9.40
2024-02-06T16:56:58.313Z,10.80
2024-02-06T16:59:26.522Z,10.20
2024-02-06T17:01:54.952Z,10.50
2024-02-06T17:04:23.649Z,8.60
2024-02-06T17:06:52.256Z,9.20
2024-02-06T17:09:20.678Z,9.60
2024-02-06T17:11:49.410Z,9.30
2024-02-06T17:14:17.737Z,8.60
2024-02-06T17:16:47.277Z,7.40
2024-02-06T17:19:16.389Z,9.80
2024-02-06T17:21:47.627Z,10.80
2024-02-06T17:24:15.985Z,10.00
2024-02-06T17:26:44.233Z,8.90
2024-02-06T17:29:12.988Z,9.70
2024-02-06T17:31:41.399Z,9.50
2024-02-06T17:34:09.959Z,8.30
2024-02-06T17:36:40.020Z,6.20
2024-02-06T17:39:09.172Z,9.00
2024-02-06T17:41:37.554Z,7.50
2024-02-06T17:44:05.898Z,9.20
2024-02-06T17:46:34.310Z,6.90
2024-02-06T17:49:02.939Z,7.00
2024-02-06T17:51:32.392Z,9.80
2024-02-06T17:54:00.723Z,7.70
2024-02-06T17:56:29.640Z,8.50
2024-02-06T17:58:58.633Z,8.60
2024-02-06T18:01:27.316Z,7.50
2024-02-06T18:03:55.594Z,10.10
2024-02-06T18:06:23.826Z,8.70
2024-02-06T18:08:52.145Z,7.20
2024-02-06T18:11:20.708Z,7.50
2024-02-06T18:13:49.173Z,8.50
2024-02-06T18:16:17.451Z,8.60
2024-02-06T18:18:45.779Z,10.50
2024-02-06T18:21:14.102Z,9.40
2024-02-06T18:23:42.702Z,7.90
2024-02-06T18:26:11.144Z,8.30
2024-02-06T18:28:39.608Z,10.40
2024-02-06T18:31:08.422Z,8.60
2024-02-06T18:33:37.007Z,8.80
2024-02-06T18:36:10.010Z,9.70
2024-02-06T18:38:38.341Z,8.70
2024-02-06T18:41:07.822Z,7.90
2024-02-06T18:43:36.607Z,7.90
2024-02-06T18:46:05.016Z,6.40
2024-02-06T18:48:33.359Z,7.10
2024-02-06T18:51:01.675Z,6.80
2024-02-06T18:53:29.849Z,6.80
2024-02-06T18:55:58.145Z,8.00
2024-02-06T18:58:26.722Z,8.50
2024-02-06T19:00:54.996Z,7.10
2024-02-06T19:03:23.498Z,7.70
2024-02-06T19:05:51.951Z,8.70
2024-02-06T19:08:20.291Z,6.90
2024-02-06T19:10:48.664Z,8.30
2024-02-06T19:13:17.070Z,7.70
2024-02-06T19:15:45.366Z,9.00
2024-02-06T19:18:13.907Z,8.40
2024-02-06T19:20:42.288Z,8.90
2024-02-06T19:23:10.511Z,9.60
2024-02-06T19:25:39.156Z,9.30
2024-02-06T19:28:07.399Z,9.10
2024-02-06T19:30:38.908Z,9.10
2024-02-06T19:33:07.166Z,9.50
2024-02-06T19:35:36.279Z,10.50
2024-02-06T19:38:04.667Z,11.10
2024-02-06T19:40:32.905Z,10.90
2024-02-06T19:43:01.154Z,9.90
2024-02-06T19:45:29.377Z,9.80
2024-02-06T19:47:58.054Z,11.80
2024-02-06T19:50:27.089Z,10.90
2024-02-06T19:52:57.393Z,10.30
2024-02-06T19:55:25.616Z,10.00
2024-02-06T19:57:53.875Z,11.60
2024-02-06T20:00:22.091Z,9.20
2024-02-06T20:02:51.367Z,6.60
2024-02-06T20:05:20.204Z,7.40
2024-02-06T20:07:48.535Z,9.30
2024-02-06T20:10:16.895Z,8.60
2024-02-06T20:12:45.175Z,8.90
2024-02-06T20:15:13.499Z,10.80
2024-02-06T20:17:41.815Z,8.20
2024-02-06T20:20:11.226Z,8.50
2024-02-06T20:22:39.754Z,9.30
2024-02-06T20:25:08.358Z,9.00
2024-02-06T20:27:36.677Z,6.10
2024-02-06T20:30:07.002Z,7.30
2024-02-06T20:32:35.588Z,7.00
2024-02-06T20:35:04.263Z,4.80
2024-02-06T20:37:32.723Z,7.50
2024-02-06T20:40:00.940Z,6.30
2024-02-06T20:42:29.403Z,7.10
2024-02-06T20:44:57.779Z,6.20
2024-02-06T20:47:26.152Z,6.50
2024-02-06T20:49:55.303Z,6.00
2024-02-06T20:52:23.734Z,5.20
2024-02-06T20:54:52.612Z,5.50
2024-02-06T20:57:21.406Z,6.70
2024-02-06T20:59:49.628Z,5.60
2024-02-06T21:02:18.955Z,4.90
2024-02-06T21:04:47.410Z,4.70
2024-02-06T21:07:16.137Z,7.30
2024-02-06T21:09:44.427Z,5.80
2024-02-06T21:12:12.705Z,7.50
2024-02-06T21:14:41.407Z,8.70
2024-02-06T21:17:09.794Z,9.90
2024-02-06T21:19:38.658Z,7.00
2024-02-06T21:22:07.019Z,7.20
2024-02-06T21:24:37.789Z,5.70
2024-02-06T21:27:06.179Z,6.50
2024-02-06T21:29:34.447Z,6.50
2024-02-06T21:32:02.612Z,5.60
2024-02-06T21:34:31.143Z,5.60
2024-02-06T21:36:59.374Z,5.60
2024-02-06T21:39:30.468Z,6.10
2024-02-06T21:42:01.480Z,5.40
2024-02-06T21:44:29.916Z,5.20
2024-02-06T21:46:58.212Z,6.50
2024-02-06T21:49:28.277Z,8.10
2024-02-06T21:51:56.509Z,5.60
2024-02-06T21:54:24.684Z,6.20
2024-02-06T21:56:52.834Z,6.10
2024-02-06T21:59:21.111Z,5.80
2024-02-06T22:01:49.953Z,6.30
2024-02-06T22:04:18.415Z,5.60
2024-02-06T22:06:49.560Z,5.10
2024-02-06T22:09:18.283Z,7.40
2024-02-06T22:11:48.499Z,5.30
2024-02-06T22:14:17.614Z,5.40
2024-02-06T22:16:46.782Z,4.60
2024-02-06T22:19:16.301Z,7.40
2024-02-06T22:21:45.363Z,4.50
2024-02-06T22:24:16.538Z,3.80
2024-02-06T22:26:47.331Z,5.00
2024-02-06T22:29:16.144Z,4.80
2024-02-06T22:31:47.563Z,4.40
2024-02-06T22:34:17.555Z,4.50
2024-02-06T22:36:46.094Z,5.10
2024-02-06T22:39:15.755Z,4.30
2024-02-06T22:41:51.414Z,4.30
2024-02-06T22:44:20.154Z,5.00
2024-02-06T22:46:48.661Z,5.90
2024-02-06T22:49:17.051Z,4.80
2024-02-06T22:51:45.301Z,5.10
2024-02-06T22:54:16.016Z,5.80
2024-02-06T22:56:44.591Z,4.10
2024-02-06T22:59:12.786Z,4.50
2024-02-06T23:01:46.921Z,4.90
2024-02-06T23:04:15.258Z,4.60
2024-02-06T23:06:43.502Z,3.90
2024-02-06T23:09:14.930Z,5.00
2024-02-06T23:11:43.218Z,3.40
2024-02-06T23:14:11.480Z,4.80
2024-02-06T23:16:39.757Z,4.00
2024-02-06T23:19:08.347Z,4.00
2024-02-06T23:21:36.586Z,4.80
2024-02-06T23:24:05.115Z,5.00
2024-02-06T23:26:33.277Z,5.60
2024-02-06T23:29:01.404Z,4.00
2024-02-06T23:31:29.599Z,4.00
2024-02-06T23:33:59.985Z,6.70
2024-02-06T23:36:28.272Z,4.00
2024-02-06T23:39:09.182Z,4.20
2024-02-06T23:41:43.659Z,3.80
2024-02-06T23:44:12.301Z,3.90
2024-02-06T23:46:40.826Z,3.60
2024-02-06T23:49:09.600Z,3.90
2024-02-06T23:51:37.917Z,3.20
2024-02-06T23:54:06.190Z,3.10
2024-02-06T23:56:34.337Z,1.50
2024-02-06T23:59:03.165Z,4.00
